Boufarik Air Base

DAAK · Blida, 阿尔及利亚

使用的METAR站距离机场34 km。
罗盘
风向 的 风向 的 风向 到 风向 340° Boufarik Air Base 5/23
风: 6 kt, 2 beaufort

3 kt

5 kt
改变
0 ft 1.000 2.000 3.000 4.000 5.000
CAVOK
METAR DAAG 191000Z 34006KT 310V010 CAVOK 32/11 Q1014

METAR Boufarik Air Base - DAAK

Boufarik Air Base是,阿尔及利亚中的中型机场。 该机场位于纬度36,54585和经度2,87632。 该机场有一条跑道: 5/23. 本场的ICAO机场代码为DAAK。 机场在Alger FIR中。

该航空气象观测是针对阿尔及尔胡阿里·布迈丁机场在2024年6月19日 11:00, 当地时间进行的。

机场观察

风向为340°,速度为6 kt。 风向在310°和010°之间变化。

天气为CAVOK。这意味着在5.000 ft或MSA(最低安全高度)以下(以较高者为准)以下没有云。这也意味着没有观测到积雨云或高耸的积云,可见度为10 km 或者更多或更高。此外,不会有雾,降雨或其他重要天气。

温度和风寒是32 °C。 露点为11 °C,相对湿度为27%。 海平面上的气压为1014 hPa (QNH)。

白天

今天,太阳从05:30升起,在20:09降落。 这适用于Boufarik Air Base,世界夏令时可能有所不同。 当地时间与世界标准时间之间的时差为+1 小时。 夏令时目前正在进行中。

公司介绍

我们没有关于这个机场的公司信息。

体会

到Vliegles.nl去找飞行课程,跳伞和其他飞行体验。 浏览页面,了解Boufarik Air Base附近所有可用的活动。 你也可以使用搜索功能来寻找你所在地附近的特定飞行课程、跳伞或其他飞行体验。

跑道

Id 标题 侧风 逆风 侧风 %
5/23 043°-223° 5 kt 3 kt 89 %

逆风成分最大的方向会被突出显示,并用于横风计算。 这并不一定意味着这个方向在使用。

温度 & 天气

温度 32 °C
露点 11 °C
相对湿度 27%
Kp-index 1 (0-9)

白天

日出
05:28
中午
12:48
日落
20:08 (8:29)

小工具

你想在你的网站上有一个关于Boufarik Air Base的当前航空天气(METAR)的小部件吗?

显示HTML代码
报告变更